Time;durP1;ratioP1;P1;durP2;ratioP2;P2;SDS_P1;SDS_P2;PMS_P1;PMS_P2;Temp;Humidity;BMP_temperature;BMP_pressure;BME280_temperature;BME280_humidity;BME280_pressure;Samples;Min_cycle;Max_cycle;Signal;HPM_P1;HPM_P2
2023/08/26 00:01:52;;;;;;;15.20;11.15;;;29.00;72.30;;;;;;6126431;23;20004;-82
2023/08/26 00:04:19;;;;;;;17.20;10.68;;;29.00;71.50;;;;;;6136631;23;20017;-84
2023/08/26 00:06:45;;;;;;;13.55;10.57;;;29.00;71.90;;;;;;6185085;23;20004;-80
2023/08/26 00:09:10;;;;;;;16.08;11.13;;;29.00;70.70;;;;;;6185218;23;20005;-81
2023/08/26 00:11:36;;;;;;;12.50;11.20;;;29.00;71.60;;;;;;6184810;23;19997;-80
2023/08/26 00:14:03;;;;;;;16.17;13.07;;;29.00;72.00;;;;;;6185220;23;20001;-83
2023/08/26 00:16:29;;;;;;;11.52;10.32;;;29.00;73.40;;;;;;6185278;23;20017;-80
2023/08/26 00:18:55;;;;;;;14.35;10.60;;;28.90;71.20;;;;;;6184917;23;20008;-78
2023/08/26 00:21:22;;;;;;;15.40;12.45;;;28.90;71.30;;;;;;6184977;23;20017;-82
2023/08/26 00:23:49;;;;;;;18.05;14.05;;;29.00;71.70;;;;;;6185268;23;20059;-79
2023/08/26 00:26:16;;;;;;;16.02;14.18;;;29.00;73.60;;;;;;6185075;23;20414;-81
2023/08/26 00:28:42;;;;;;;17.45;12.52;;;28.90;74.20;;;;;;6186112;23;20028;-82
2023/08/26 00:31:08;;;;;;;18.02;15.98;;;29.00;73.20;;;;;;6185721;23;20065;-80
2023/08/26 00:33:34;;;;;;;19.30;16.15;;;29.00;74.90;;;;;;6185187;23;20008;-81
2023/08/26 00:36:00;;;;;;;19.25;14.90;;;28.90;76.20;;;;;;6186558;23;20005;-82
2023/08/26 00:38:25;;;;;;;19.85;16.88;;;28.90;76.20;;;;;;6185817;23;20386;-83
2023/08/26 00:40:51;;;;;;;18.80;14.82;;;28.90;77.40;;;;;;6185121;23;20339;-81
2023/08/26 00:43:16;;;;;;;18.88;15.48;;;28.90;77.10;;;;;;6184497;23;20327;-81
2023/08/26 00:45:48;;;;;;;21.05;18.92;;;28.90;77.20;;;;;;6184986;23;20109;-82
2023/08/26 00:48:15;;;;;;;19.63;16.35;;;28.90;78.70;;;;;;6185570;23;20012;-80
2023/08/26 00:50:46;;;;;;;18.35;16.23;;;28.80;78.30;;;;;;6185318;23;20486;-81
2023/08/26 00:53:12;;;;;;;20.38;18.23;;;28.80;78.80;;;;;;6184974;23;20073;-82
2023/08/26 00:55:40;;;;;;;18.85;16.90;;;28.70;79.40;;;;;;6184944;23;20000;-81
2023/08/26 00:58:06;;;;;;;20.23;15.55;;;28.70;79.80;;;;;;6185011;23;20005;-80
2023/08/26 01:00:36;;;;;;;19.98;17.77;;;28.70;79.20;;;;;;6184767;23;20001;-80
2023/08/26 01:03:03;;;;;;;20.33;18.25;;;28.70;79.70;;;;;;6184677;23;20013;-80
2023/08/26 01:05:29;;;;;;;19.67;17.08;;;28.70;80.00;;;;;;6184490;23;20104;-81
2023/08/26 01:07:56;;;;;;;21.80;19.50;;;28.60;79.60;;;;;;6184489;23;20008;-84
2023/08/26 01:10:59;;;;;;;20.30;18.13;;;28.60;80.30;;;;;;6184988;23;20056;-81
2023/08/26 01:13:41;;;;;;;17.42;15.32;;;28.60;79.40;;;;;;6184498;23;20027;-80
2023/08/26 01:16:08;;;;;;;14.77;13.10;;;28.60;78.80;;;;;;6184741;23;19997;-83
2023/08/26 01:18:34;;;;;;;17.98;16.15;;;28.60;79.10;;;;;;6184578;23;20080;-81
2023/08/26 01:21:00;;;;;;;17.95;16.20;;;28.60;79.90;;;;;;6184595;23;20442;-83
2023/08/26 01:23:43;;;;;;;19.13;16.95;;;28.60;80.70;;;;;;6184577;23;20013;-82
2023/08/26 01:26:09;;;;;;;20.95;16.23;;;28.60;80.40;;;;;;6185028;23;20021;-81
2023/08/26 01:28:34;;;;;;;19.75;16.40;;;28.60;80.90;;;;;;6185044;23;20059;-82
2023/08/26 01:31:09;;;;;;;20.50;16.67;;;28.60;81.00;;;;;;6184936;23;20013;-81
2023/08/26 01:34:06;;;;;;;21.10;17.92;;;28.60;81.50;;;;;;6184290;23;20001;-81
2023/08/26 01:36:37;;;;;;;19.42;17.48;;;28.60;81.60;;;;;;6184649;23;20010;-81
2023/08/26 01:39:04;;;;;;;23.70;18.83;;;28.60;81.30;;;;;;6185445;23;20001;-80
2023/08/26 01:41:30;;;;;;;21.50;19.25;;;28.60;81.50;;;;;;6185571;23;20502;-80
2023/08/26 01:43:57;;;;;;;20.80;18.65;;;28.60;81.00;;;;;;6185581;23;20008;-81
2023/08/26 01:46:37;;;;;;;20.70;16.90;;;28.60;81.40;;;;;;6185840;23;20009;-80
2023/08/26 01:49:03;;;;;;;19.88;17.88;;;28.60;81.00;;;;;;6185887;23;20012;-80
2023/08/26 01:51:29;;;;;;;18.42;16.17;;;28.50;81.60;;;;;;6185123;23;20434;-82
2023/08/26 01:53:55;;;;;;;20.60;18.15;;;28.50;81.60;;;;;;6187223;23;20009;-80
2023/08/26 01:56:20;;;;;;;19.48;17.00;;;28.60;81.40;;;;;;6196101;23;20049;-81
2023/08/26 01:58:46;;;;;;;17.83;14.63;;;28.50;80.10;;;;;;6188528;23;20043;-83
2023/08/26 02:01:12;;;;;;;15.90;13.35;;;28.40;79.50;;;;;;6187830;23;19997;-82
2023/08/26 02:03:37;;;;;;;16.73;12.95;;;28.50;79.20;;;;;;6185172;23;20491;-82
2023/08/26 02:06:03;;;;;;;18.55;12.43;;;28.40;77.30;;;;;;6185886;23;20020;-80
2023/08/26 02:08:29;;;;;;;14.63;12.00;;;28.40;76.50;;;;;;6185391;23;19998;-80
2023/08/26 02:10:56;;;;;;;16.45;11.30;;;28.40;74.80;;;;;;6184827;23;20020;-83
2023/08/26 02:13:23;;;;;;;19.55;12.23;;;28.40;73.60;;;;;;6184384;23;20009;-81
2023/08/26 02:15:48;;;;;;;15.65;12.35;;;28.40;72.60;;;;;;6184312;23;20001;-83
2023/08/26 02:18:14;;;;;;;18.50;12.10;;;28.30;71.10;;;;;;6184518;23;20446;-82
2023/08/26 02:20:40;;;;;;;13.55;11.80;;;28.20;70.60;;;;;;6184529;23;20386;-81
2023/08/26 02:23:06;;;;;;;14.10;11.10;;;28.10;70.10;;;;;;6184223;23;20045;-80
2023/08/26 02:25:32;;;;;;;15.07;10.98;;;28.10;69.70;;;;;;6184185;23;20013;-81
2023/08/26 02:27:57;;;;;;;15.02;11.18;;;28.00;69.40;;;;;;6184644;23;20055;-81
2023/08/26 02:30:23;;;;;;;14.30;10.90;;;28.00;69.00;;;;;;6185461;23;20005;-80
2023/08/26 02:32:49;;;;;;;16.45;10.68;;;28.00;68.20;;;;;;6184286;23;20335;-81
2023/08/26 02:35:15;;;;;;;15.40;11.45;;;28.00;67.80;;;;;;6157912;23;20009;-80
2023/08/26 02:37:40;;;;;;;18.52;11.75;;;28.00;67.00;;;;;;6185351;23;20005;-79
2023/08/26 02:40:07;;;;;;;16.00;11.73;;;28.00;66.70;;;;;;6184422;23;19997;-82
2023/08/26 02:42:33;;;;;;;19.45;11.95;;;28.00;66.20;;;;;;6184072;23;20009;-82
2023/08/26 02:45:00;;;;;;;16.45;11.95;;;27.90;65.40;;;;;;6184131;23;20063;-80
2023/08/26 02:47:25;;;;;;;17.67;12.45;;;27.90;65.80;;;;;;6184187;23;20009;-81
2023/08/26 02:49:51;;;;;;;20.90;13.23;;;27.90;65.30;;;;;;6184261;23;20095;-81
2023/08/26 02:52:17;;;;;;;15.45;11.65;;;27.80;64.90;;;;;;6184858;23;19997;-83
2023/08/26 02:54:43;;;;;;;16.55;11.68;;;27.80;64.70;;;;;;6184928;23;20175;-80
2023/08/26 02:57:08;;;;;;;17.67;11.88;;;27.70;64.20;;;;;;6184910;23;19998;-83
2023/08/26 02:59:34;;;;;;;16.77;11.80;;;27.70;64.40;;;;;;6185041;23;20025;-82
2023/08/26 03:02:03;;;;;;;18.40;12.38;;;27.60;63.80;;;;;;6184619;23;20002;-82
2023/08/26 03:04:32;;;;;;;15.30;12.05;;;27.60;63.50;;;;;;6183970;23;20044;-82
2023/08/26 03:06:58;;;;;;;16.83;11.43;;;27.60;63.60;;;;;;6184621;23;20435;-82
2023/08/26 03:09:25;;;;;;;13.15;11.00;;;27.70;63.50;;;;;;6184851;23;20158;-83
2023/08/26 03:11:51;;;;;;;16.15;12.02;;;27.70;63.00;;;;;;6184621;23;20009;-82
2023/08/26 03:14:17;;;;;;;12.82;10.75;;;27.70;62.90;;;;;;6184720;23;20012;-81
2023/08/26 03:16:43;;;;;;;15.85;11.30;;;27.70;62.50;;;;;;6184988;23;20012;-80
2023/08/26 03:19:08;;;;;;;17.70;11.55;;;27.60;62.10;;;;;;6186410;23;20001;-82
2023/08/26 03:21:34;;;;;;;13.57;11.02;;;27.60;62.00;;;;;;6191966;23;20013;-81
2023/08/26 03:24:00;;;;;;;16.83;11.90;;;27.50;62.80;;;;;;6185858;23;20006;-82
2023/08/26 03:26:25;;;;;;;15.00;11.30;;;27.50;62.20;;;;;;6184384;23;20009;-81
2023/08/26 03:28:51;;;;;;;15.07;11.25;;;27.50;62.10;;;;;;6184867;23;20147;-81
2023/08/26 03:31:17;;;;;;;15.35;11.40;;;27.30;62.10;;;;;;6189425;23;20012;-82
2023/08/26 03:33:42;;;;;;;14.57;11.38;;;27.20;61.90;;;;;;6185845;23;19997;-82
2023/08/26 03:36:08;;;;;;;16.42;11.63;;;27.20;61.90;;;;;;6189019;23;20075;-81
2023/08/26 03:38:34;;;;;;;14.77;11.48;;;27.20;61.90;;;;;;6185860;23;20008;-81
2023/08/26 03:41:04;;;;;;;15.13;10.77;;;27.20;62.00;;;;;;6183827;23;20379;-81
2023/08/26 03:43:31;;;;;;;14.32;11.90;;;27.20;61.90;;;;;;6184081;23;19997;-81
2023/08/26 03:45:57;;;;;;;12.85;11.00;;;27.20;61.80;;;;;;6185425;23;20016;-81
2023/08/26 03:48:22;;;;;;;14.98;11.02;;;27.20;61.80;;;;;;6186256;23;19997;-80
2023/08/26 03:50:52;;;;;;;13.63;11.05;;;27.20;61.60;;;;;;6186268;23;20092;-82
2023/08/26 03:53:18;;;;;;;16.45;11.18;;;27.20;61.70;;;;;;6185989;23;20091;-81
2023/08/26 03:55:46;;;;;;;17.80;11.38;;;27.20;61.70;;;;;;6188103;23;19997;-81
2023/08/26 03:58:12;;;;;;;17.10;10.85;;;27.20;61.60;;;;;;6192906;23;20001;-80
2023/08/26 04:00:38;;;;;;;15.20;11.05;;;27.20;61.50;;;;;;6190323;23;20001;-82
2023/08/26 04:03:05;;;;;;;13.43;10.98;;;27.20;61.40;;;;;;6186244;23;20458;-81
2023/08/26 04:05:33;;;;;;;11.77;10.57;;;27.20;61.40;;;;;;6185805;23;20606;-83
2023/08/26 04:08:02;;;;;;;14.60;11.30;;;27.20;61.90;;;;;;6185673;23;20377;-81
2023/08/26 04:10:29;;;;;;;12.50;11.20;;;27.20;62.10;;;;;;6186181;23;20035;-83
2023/08/26 04:13:01;;;;;;;15.75;11.68;;;27.10;61.60;;;;;;6185785;23;20001;-83
2023/08/26 04:15:27;;;;;;;14.35;10.77;;;27.00;61.60;;;;;;6185981;23;20005;-81
2023/08/26 04:17:52;;;;;;;15.02;11.55;;;27.10;61.60;;;;;;6185599;23;19998;-82
2023/08/26 04:20:18;;;;;;;17.50;11.68;;;27.20;61.40;;;;;;6185350;23;20084;-82
2023/08/26 04:22:44;;;;;;;14.07;11.20;;;27.10;61.20;;;;;;6187573;23;20001;-82
2023/08/26 04:25:09;;;;;;;12.88;11.45;;;27.20;61.20;;;;;;6185725;23;20024;-82
2023/08/26 04:27:35;;;;;;;18.38;12.20;;;27.20;61.10;;;;;;6185235;23;20001;-82
2023/08/26 04:30:01;;;;;;;19.40;11.48;;;27.20;61.20;;;;;;6186047;23;20339;-82
2023/08/26 04:32:27;;;;;;;17.80;11.48;;;27.20;61.10;;;;;;6185352;23;19997;-81
2023/08/26 04:34:52;;;;;;;16.48;11.57;;;27.20;61.10;;;;;;6185652;23;20072;-86
2023/08/26 04:37:20;;;;;;;16.65;11.38;;;27.20;61.10;;;;;;6185467;23;20001;-81
2023/08/26 04:39:46;;;;;;;13.95;10.70;;;27.20;61.30;;;;;;6186854;23;20097;-82
2023/08/26 04:42:13;;;;;;;12.75;11.20;;;27.20;61.50;;;;;;6189044;23;20450;-80
2023/08/26 04:44:39;;;;;;;24.30;11.45;;;27.20;61.30;;;;;;6191387;23;20013;-84
2023/08/26 04:47:05;;;;;;;16.88;11.98;;;27.10;61.00;;;;;;6186212;23;20001;-82
2023/08/26 04:49:34;;;;;;;14.05;12.02;;;27.10;61.40;;;;;;6185556;23;20009;-84
2023/08/26 04:52:00;;;;;;;16.83;11.55;;;27.10;61.30;;;;;;6185116;23;20368;-81
2023/08/26 04:54:25;;;;;;;14.50;11.60;;;27.00;61.40;;;;;;6185248;23;20044;-83
2023/08/26 04:56:51;;;;;;;13.43;11.35;;;27.00;61.50;;;;;;6186232;23;20076;-82
2023/08/26 04:59:17;;;;;;;13.80;11.07;;;27.00;61.50;;;;;;6188127;23;20335;-80
2023/08/26 05:01:43;;;;;;;13.50;11.65;;;27.00;61.60;;;;;;6185202;23;20021;-84
2023/08/26 05:04:08;;;;;;;12.88;10.43;;;27.00;61.60;;;;;;6184445;23;20020;-81
2023/08/26 05:06:34;;;;;;;16.45;11.48;;;27.00;61.60;;;;;;6184956;23;20424;-80
2023/08/26 05:09:00;;;;;;;15.70;11.57;;;27.00;61.80;;;;;;6185021;23;20005;-82
2023/08/26 05:11:25;;;;;;;15.50;11.20;;;27.10;61.80;;;;;;6186100;23;20005;-84
2023/08/26 05:13:51;;;;;;;14.68;10.75;;;27.20;61.80;;;;;;6158808;23;20117;-81
2023/08/26 05:16:17;;;;;;;12.32;11.02;;;27.20;61.80;;;;;;6185259;23;20011;-83
2023/08/26 05:18:43;;;;;;;19.17;11.82;;;27.30;61.80;;;;;;6185441;23;20164;-81
2023/08/26 05:21:08;;;;;;;15.57;11.50;;;27.30;61.60;;;;;;6185438;23;20009;-85
2023/08/26 05:23:34;;;;;;;14.13;11.55;;;27.30;61.70;;;;;;6185013;23;20335;-82
2023/08/26 05:26:00;;;;;;;17.00;11.00;;;27.30;61.70;;;;;;6184687;23;20343;-83
2023/08/26 05:28:26;;;;;;;17.20;11.43;;;27.30;61.60;;;;;;6184960;23;20072;-81
2023/08/26 05:30:51;;;;;;;15.43;11.80;;;27.40;61.60;;;;;;6185175;23;20008;-81
2023/08/26 05:33:17;;;;;;;14.48;11.55;;;27.40;61.70;;;;;;6184912;23;20056;-82
2023/08/26 05:35:43;;;;;;;13.65;11.73;;;27.40;61.60;;;;;;6184980;23;20004;-81
2023/08/26 05:38:09;;;;;;;14.32;11.88;;;27.40;61.60;;;;;;6184966;23;20008;-82
2023/08/26 05:40:35;;;;;;;18.52;11.68;;;27.50;61.60;;;;;;6185572;23;20414;-83
2023/08/26 05:43:01;;;;;;;13.70;12.18;;;27.50;61.80;;;;;;6184992;23;20080;-83
2023/08/26 05:45:27;;;;;;;18.88;12.90;;;27.70;61.80;;;;;;6185103;23;20044;-82
2023/08/26 05:47:54;;;;;;;13.93;11.55;;;27.70;61.60;;;;;;6184972;23;20001;-83
2023/08/26 05:50:19;;;;;;;14.45;11.70;;;27.90;61.40;;;;;;6185057;23;20009;-81
2023/08/26 05:52:45;;;;;;;16.65;11.73;;;28.10;61.10;;;;;;6184830;23;20358;-83
2023/08/26 05:55:11;;;;;;;16.52;12.27;;;28.20;61.00;;;;;;6185280;23;20005;-81
2023/08/26 05:57:38;;;;;;;18.35;12.18;;;28.40;60.70;;;;;;6184739;23;20132;-83
2023/08/26 06:00:06;;;;;;;20.23;13.10;;;28.70;60.00;;;;;;6186674;23;20009;-80
2023/08/26 06:02:31;;;;;;;16.33;11.15;;;28.90;59.70;;;;;;6186797;23;20041;-81
